Time;durP1;ratioP1;P1;durP2;ratioP2;P2;SDS_P1;SDS_P2;PMS_P1;PMS_P2;Temp;Humidity;BMP_temperature;BMP_pressure;BME280_temperature;BME280_humidity;BME280_pressure;Samples;Min_cycle;Max_cycle;Signal;HPM_P1;HPM_P2
2023/06/12 00:01:39;;;;;;;17.30;6.13;;;19.00;99.90;;;19.29;71.30;94431.22;5054880;28;20464;-63
2023/06/12 00:04:07;;;;;;;14.20;6.60;;;18.90;99.90;;;19.25;71.34;94430.78;5052468;28;20572;-62
2023/06/12 00:06:35;;;;;;;10.27;6.30;;;18.90;99.90;;;19.21;71.74;94432.22;5053289;28;20837;-55
2023/06/12 00:09:03;;;;;;;13.50;5.80;;;18.90;99.90;;;19.18;71.56;94432.63;5050801;28;20472;-63
2023/06/12 00:11:31;;;;;;;8.63;5.73;;;18.80;99.90;;;19.15;71.87;94433.03;5052976;28;20621;-54
2023/06/12 00:13:59;;;;;;;12.13;6.33;;;18.80;99.90;;;19.15;71.79;94431.19;5052819;28;20476;-55
2023/06/12 00:16:28;;;;;;;8.67;6.57;;;18.80;99.90;;;19.15;72.06;94433.03;5050007;28;20463;-57
2023/06/12 00:18:55;;;;;;;10.60;5.97;;;18.80;99.90;;;19.15;71.41;94430.38;5049971;28;20483;-62
2023/06/12 00:21:23;;;;;;;9.97;6.53;;;18.80;99.90;;;19.16;71.57;94432.00;5051167;28;20458;-55
2023/06/12 00:23:50;;;;;;;11.63;6.10;;;18.80;99.90;;;19.17;71.60;94433.66;5053248;28;20471;-55
2023/06/12 00:26:17;;;;;;;8.03;6.07;;;18.80;99.90;;;19.16;71.36;94434.66;5052061;28;20812;-55
2023/06/12 00:28:45;;;;;;;9.47;6.30;;;18.80;99.90;;;19.16;71.51;94424.84;5048779;28;20456;-64
2023/06/12 00:31:14;;;;;;;8.03;5.93;;;18.80;99.90;;;19.18;72.06;94424.66;5052983;28;20513;-54
2023/06/12 00:33:42;;;;;;;7.30;5.47;;;18.80;99.90;;;19.19;71.94;94428.13;5049346;28;20444;-55
2023/06/12 00:36:09;;;;;;;8.50;6.07;;;18.80;99.90;;;19.18;71.57;94427.31;5053504;28;20451;-64
2023/06/12 00:38:36;;;;;;;6.57;5.60;;;18.80;99.90;;;19.18;72.10;94427.31;5048538;28;20452;-65
2023/06/12 00:41:03;;;;;;;10.20;7.13;;;18.80;99.90;;;19.17;71.63;94429.13;5052903;28;20459;-53
2023/06/12 00:43:31;;;;;;;6.57;5.57;;;18.80;99.90;;;19.17;71.97;94429.13;5050530;28;20460;-63
2023/06/12 00:45:58;;;;;;;7.63;5.27;;;18.80;99.90;;;19.18;72.13;94421.97;5051688;28;20488;-64
2023/06/12 00:48:26;;;;;;;8.17;7.23;;;18.80;99.90;;;19.18;71.86;94427.31;5052396;28;20743;-63
2023/06/12 00:50:56;;;;;;;6.00;5.10;;;18.80;99.90;;;19.18;71.95;94432.63;5058496;28;21073;-53
2023/06/12 00:53:23;;;;;;;8.47;6.10;;;18.80;99.90;;;19.17;72.27;94431.81;5048739;28;20447;-63
2023/06/12 00:55:50;;;;;;;6.80;6.00;;;18.80;99.90;;;19.18;72.23;94435.31;5054650;28;20471;-55
2023/06/12 00:58:17;;;;;;;7.43;5.80;;;18.80;99.90;;;19.18;71.83;94435.31;5053048;28;20456;-61
2023/06/12 01:00:48;;;;;;;10.10;6.20;;;18.80;99.90;;;19.19;71.89;94433.44;5055915;28;20471;-55
2023/06/12 01:03:15;;;;;;;7.90;5.23;;;18.80;99.90;;;19.19;71.81;94428.94;5050802;28;20436;-56
2023/06/12 01:05:45;;;;;;;6.67;5.50;;;18.80;99.90;;;19.22;71.81;94431.19;5054021;28;20821;-63
2023/06/12 01:08:30;;;;;;;9.83;5.07;;;18.80;99.90;;;19.23;72.29;94429.38;5053333;28;20790;-63
2023/06/12 01:10:59;;;;;;;6.20;5.63;;;18.90;99.90;;;19.23;71.63;94421.38;5048901;28;20908;-54
2023/06/12 01:13:26;;;;;;;7.83;6.30;;;18.80;99.90;;;19.22;71.13;94411.72;5049725;28;20828;-55
2023/06/12 01:15:53;;;;;;;8.30;5.93;;;18.80;99.90;;;19.21;71.54;94421.56;5049100;28;20455;-63
2023/06/12 01:18:21;;;;;;;8.73;6.10;;;18.80;99.90;;;19.20;71.60;94422.59;5055658;28;20451;-63
2023/06/12 01:20:50;;;;;;;7.17;5.47;;;18.80;99.90;;;19.22;72.01;94417.84;5048965;28;20584;-63
2023/06/12 01:23:32;;;;;;;6.30;5.53;;;18.80;99.90;;;19.21;71.54;94416.25;5056306;28;20560;-63
2023/06/12 01:26:33;;;;;;;16.57;6.20;;;18.80;99.90;;;19.21;71.07;94418.91;5051978;28;20883;-54
2023/06/12 01:29:45;;;;;;;7.43;6.07;;;18.80;99.90;;;19.18;71.01;94416.66;5053201;28;20463;-53
2023/06/12 01:32:15;;;;;;;8.70;5.83;;;18.80;99.90;;;19.17;71.11;94409.66;5026739;28;20557;-64
2023/06/12 01:34:56;;;;;;;7.63;5.70;;;18.80;99.90;;;19.17;71.45;94409.66;5048021;28;20479;-64
2023/06/12 01:37:42;;;;;;;7.60;5.90;;;18.80;99.90;;;19.18;71.45;94419.31;5051616;28;20478;-63
2023/06/12 01:40:10;;;;;;;7.87;5.37;;;18.80;99.90;;;19.20;71.16;94419.09;5056618;28;20468;-64
2023/06/12 01:42:38;;;;;;;9.93;5.70;;;18.80;99.90;;;19.22;72.09;94425.03;5051463;28;20959;-64
2023/06/12 01:45:07;;;;;;;7.30;5.33;;;18.80;99.90;;;19.24;72.05;94420.31;5050508;28;20822;-62
2023/06/12 01:47:35;;;;;;;6.40;5.30;;;18.80;99.90;;;19.26;72.00;94419.09;5048611;28;20521;-54
2023/06/12 01:50:03;;;;;;;6.70;5.73;;;18.90;99.90;;;19.29;72.25;94423.22;5056640;28;20470;-62
2023/06/12 01:52:32;;;;;;;9.63;6.00;;;18.90;99.90;;;19.30;72.17;94428.34;5049997;28;20490;-63
2023/06/12 01:55:00;;;;;;;10.90;6.13;;;18.90;99.90;;;19.29;72.12;94432.03;5052222;28;20475;-57
2023/06/12 01:57:28;;;;;;;8.03;6.17;;;18.90;99.90;;;19.30;71.81;94430.16;5054894;28;20550;-64
2023/06/12 01:59:55;;;;;;;6.63;5.50;;;18.90;99.90;;;19.30;71.45;94431.00;5047504;28;20567;-55
2023/06/12 02:02:23;;;;;;;8.77;6.07;;;18.90;99.90;;;19.30;71.69;94433.69;5052579;28;20455;-54
2023/06/12 02:04:51;;;;;;;9.80;5.97;;;18.90;99.90;;;19.32;71.25;94431.63;5046954;28;20475;-62
2023/06/12 02:07:19;;;;;;;13.50;5.97;;;18.90;99.90;;;19.31;71.55;94426.50;5053019;28;20455;-54
2023/06/12 02:09:46;;;;;;;7.40;5.97;;;18.90;99.90;;;19.32;71.68;94434.28;5047829;28;20579;-55
2023/06/12 02:12:13;;;;;;;17.03;6.00;;;18.90;99.90;;;19.33;71.79;94435.94;5048515;28;20483;-63
2023/06/12 02:14:41;;;;;;;7.50;6.13;;;18.90;99.90;;;19.33;71.34;94427.94;5048845;28;20479;-57
2023/06/12 02:17:09;;;;;;;11.27;6.60;;;18.90;99.90;;;19.34;71.70;94432.22;5053650;28;20451;-56
2023/06/12 02:19:36;;;;;;;6.97;6.27;;;19.00;99.90;;;19.34;71.54;94432.22;5049652;28;20876;-63
2023/06/12 02:22:05;;;;;;;8.10;6.17;;;18.90;99.90;;;19.35;71.46;94428.53;5050996;28;20584;-62
2023/06/12 02:24:33;;;;;;;11.37;6.50;;;19.00;99.90;;;19.34;71.39;94429.56;5051153;28;20883;-54
2023/06/12 02:27:00;;;;;;;10.30;5.50;;;19.00;99.90;;;19.34;71.68;94432.22;5050831;28;20454;-53
2023/06/12 02:29:27;;;;;;;5.17;4.77;;;19.00;99.90;;;19.35;71.77;94431.22;5052818;28;20557;-55
2023/06/12 02:31:54;;;;;;;8.10;6.03;;;19.00;99.90;;;19.37;72.05;94436.34;5052673;28;20553;-64
2023/06/12 02:34:22;;;;;;;7.17;5.50;;;19.00;99.90;;;19.39;71.73;94444.13;5052545;28;20532;-62
2023/06/12 02:36:50;;;;;;;9.03;6.20;;;19.00;99.90;;;19.40;71.60;94432.44;5050955;28;20459;-55
2023/06/12 02:39:18;;;;;;;8.93;6.63;;;19.00;99.90;;;19.40;71.35;94437.78;5053575;28;20470;-63
2023/06/12 02:41:47;;;;;;;15.63;6.67;;;19.00;99.90;;;19.41;71.30;94442.06;5054013;28;20460;-55
2023/06/12 02:44:14;;;;;;;11.03;7.20;;;19.00;99.90;;;19.40;72.00;94443.94;5058385;28;20954;-53
2023/06/12 02:46:51;;;;;;;13.83;6.63;;;19.00;99.90;;;19.39;71.88;94450.28;5053179;28;20513;-63
2023/06/12 02:49:19;;;;;;;8.00;5.20;;;19.00;99.90;;;19.38;71.64;94454.00;5059053;28;20565;-54
2023/06/12 02:51:46;;;;;;;9.50;5.67;;;19.00;99.90;;;19.37;71.87;94452.34;5055441;28;20584;-63
2023/06/12 02:54:13;;;;;;;9.80;5.43;;;19.00;99.90;;;19.35;71.90;94460.53;5057029;28;20898;-53
2023/06/12 02:56:44;;;;;;;11.23;5.87;;;19.00;99.90;;;19.34;71.30;94464.22;5053796;28;20521;-62
2023/06/12 02:59:13;;;;;;;9.30;6.10;;;18.90;99.90;;;19.34;71.34;94461.56;5055393;28;20471;-53
2023/06/12 03:01:43;;;;;;;8.10;6.13;;;19.00;99.90;;;19.33;70.97;94464.44;5052023;28;20879;-63
2023/06/12 03:04:12;;;;;;;9.13;5.93;;;19.00;99.90;;;19.30;71.91;94459.50;5054148;28;20475;-62
2023/06/12 03:06:40;;;;;;;7.13;6.43;;;18.90;99.90;;;19.29;71.79;94463.22;5057086;28;20501;-63
2023/06/12 03:09:08;;;;;;;15.63;7.27;;;18.90;99.90;;;19.28;71.72;94467.69;5051317;28;20472;-55
2023/06/12 03:11:36;;;;;;;26.87;6.50;;;18.90;99.90;;;19.28;71.81;94474.91;5054941;28;20487;-64
2023/06/12 03:14:05;;;;;;;13.00;6.30;;;18.90;99.90;;;19.28;71.74;94470.38;5052304;28;20861;-55
2023/06/12 03:16:32;;;;;;;9.10;6.20;;;18.90;99.90;;;19.30;71.88;94475.50;5057348;28;20462;-56
2023/06/12 03:19:00;;;;;;;13.77;7.10;;;18.90;99.90;;;19.28;71.35;94474.91;5053495;28;20475;-56
2023/06/12 03:21:27;;;;;;;8.33;5.50;;;18.90;99.90;;;19.27;71.90;94479.41;5052345;28;20447;-55
2023/06/12 03:23:54;;;;;;;9.53;6.50;;;18.90;99.90;;;19.26;71.48;94469.75;5056266;28;20529;-56
2023/06/12 03:26:22;;;;;;;17.87;6.50;;;18.90;99.90;;;19.28;71.43;94478.38;5053375;28;20537;-63
2023/06/12 03:28:49;;;;;;;19.37;5.50;;;18.90;99.90;;;19.29;71.75;94480.03;5048258;28;20464;-63
2023/06/12 03:31:18;;;;;;;8.80;6.33;;;18.90;99.90;;;19.29;71.78;94474.69;5053791;28;20929;-56
2023/06/12 03:33:45;;;;;;;10.80;5.57;;;18.90;99.90;;;19.28;71.58;94481.03;5054968;28;20514;-54
2023/06/12 03:36:12;;;;;;;13.17;6.80;;;18.90;99.90;;;19.29;71.52;94479.22;5051747;28;20447;-61
2023/06/12 03:38:39;;;;;;;14.03;5.90;;;18.90;99.90;;;19.29;71.50;94476.53;5051571;28;20968;-63
2023/06/12 03:41:07;;;;;;;12.13;6.10;;;18.90;99.90;;;19.29;71.61;94474.69;5056529;28;20461;-62
2023/06/12 03:43:34;;;;;;;9.83;5.47;;;18.90;99.90;;;19.29;71.52;94469.34;5051837;28;20531;-63
2023/06/12 03:46:01;;;;;;;6.30;5.70;;;18.90;99.90;;;19.30;71.35;94468.34;5051534;28;20533;-63
2023/06/12 03:48:30;;;;;;;9.93;5.80;;;18.90;99.90;;;19.32;71.50;94466.28;5051710;28;21023;-55
2023/06/12 03:50:57;;;;;;;9.33;5.83;;;18.90;99.90;;;19.34;71.15;94458.88;5058580;28;20520;-57
2023/06/12 03:53:24;;;;;;;18.93;6.80;;;18.90;99.90;;;19.35;71.48;94465.88;5055284;28;20559;-57
2023/06/12 03:55:51;;;;;;;18.30;6.43;;;19.00;99.90;;;19.38;71.51;94459.31;5057708;28;20455;-64
2023/06/12 03:58:20;;;;;;;10.23;7.17;;;19.00;99.90;;;19.44;71.97;94455.00;5050894;28;21368;-63
2023/06/12 04:00:47;;;;;;;8.40;6.60;;;19.00;99.90;;;19.49;71.84;94455.22;5052004;28;20464;-53
2023/06/12 04:03:18;;;;;;;14.37;5.90;;;19.10;99.90;;;19.55;71.86;94465.06;5050569;28;20456;-62
2023/06/12 04:05:47;;;;;;;13.43;6.07;;;19.10;99.90;;;19.61;71.71;94466.91;5052143;28;20563;-56
2023/06/12 04:08:14;;;;;;;9.30;6.10;;;19.20;99.90;;;19.67;71.36;94467.91;5051944;28;20579;-57
2023/06/12 04:10:41;;;;;;;8.63;6.03;;;19.20;99.90;;;19.73;71.19;94472.44;5056270;28;20466;-66
2023/06/12 04:13:09;;;;;;;10.37;6.60;;;19.30;99.90;;;19.81;71.57;94469.56;5050054;28;20578;-65
2023/06/12 04:15:36;;;;;;;7.33;6.17;;;19.40;99.90;;;19.92;70.82;94468.13;5049457;28;20480;-65
2023/06/12 04:18:04;;;;;;;10.30;6.87;;;19.50;99.90;;;20.00;70.21;94464.41;5051716;28;20458;-55
2023/06/12 04:20:33;;;;;;;6.93;6.23;;;19.50;99.90;;;20.04;69.63;94466.47;5048862;28;20487;-55
2023/06/12 04:23:04;;;;;;;15.83;6.53;;;19.60;99.90;;;20.05;69.37;94462.78;5052677;28;20455;-54
2023/06/12 04:25:32;;;;;;;10.10;6.40;;;19.60;99.90;;;20.08;68.96;94463.38;5048984;28;20491;-65
2023/06/12 04:28:00;;;;;;;7.53;6.67;;;19.70;99.90;;;20.11;69.34;94461.13;5047891;28;20463;-66
2023/06/12 04:30:27;;;;;;;14.47;7.47;;;19.70;99.90;;;20.16;68.83;94463.16;5052154;28;20867;-65
2023/06/12 04:32:56;;;;;;;10.90;6.43;;;19.70;99.90;;;20.20;68.87;94469.72;5050000;28;20488;-56
2023/06/12 04:35:23;;;;;;;7.53;6.03;;;19.80;99.90;;;20.26;68.58;94466.22;5050782;28;20561;-54
2023/06/12 04:37:52;;;;;;;8.47;5.20;;;19.80;99.90;;;20.29;68.23;94470.31;5049632;28;20530;-64
2023/06/12 04:40:22;;;;;;;7.73;6.70;;;19.90;99.90;;;20.33;68.42;94456.34;5056348;28;20503;-56
2023/06/12 04:42:53;;;;;;;9.60;6.00;;;19.90;99.90;;;20.38;68.43;94461.03;5052080;28;20444;-64
2023/06/12 04:45:21;;;;;;;11.33;6.30;;;19.90;99.90;;;20.42;68.57;94455.06;5049488;28;20518;-60
2023/06/12 04:47:50;;;;;;;21.53;5.67;;;20.00;99.90;;;20.48;67.68;94457.91;5049825;28;20972;-56
2023/06/12 04:50:18;;;;;;;9.73;6.60;;;20.00;99.90;;;20.50;67.20;94458.56;5048804;28;20589;-56
2023/06/12 04:52:47;;;;;;;7.23;5.67;;;20.00;99.90;;;20.50;67.16;94458.56;5048897;28;20541;-54
2023/06/12 04:55:16;;;;;;;12.07;6.30;;;20.10;99.90;;;20.54;67.09;94457.91;5052382;28;20524;-61
2023/06/12 04:57:47;;;;;;;8.07;5.60;;;20.10;99.90;;;20.57;67.23;94457.50;5050187;28;20451;-65
2023/06/12 05:00:16;;;;;;;8.77;6.57;;;20.10;99.90;;;20.60;66.96;94464.25;5054197;28;20479;-56
2023/06/12 05:02:44;;;;;;;6.90;5.77;;;20.20;99.90;;;20.61;67.05;94460.56;5049882;28;21046;-62
2023/06/12 05:05:12;;;;;;;7.60;5.27;;;20.20;99.90;;;20.60;66.74;94461.56;5052956;28;20597;-56
2023/06/12 05:07:45;;;;;;;14.50;5.87;;;20.20;99.90;;;20.61;66.92;94463.22;5048930;28;20443;-61
2023/06/12 05:10:13;;;;;;;7.27;5.70;;;20.20;99.90;;;20.62;66.94;94464.88;5050689;28;20492;-57
2023/06/12 05:12:40;;;;;;;6.27;4.87;;;20.20;99.90;;;20.63;66.72;94466.50;5050050;28;20581;-63
2023/06/12 05:15:09;;;;;;;10.47;6.03;;;20.20;99.90;;;20.65;66.80;94463.63;5047526;28;20481;-62
2023/06/12 05:17:37;;;;;;;6.43;5.13;;;20.20;99.90;;;20.65;66.50;94461.81;5054540;28;20930;-55
2023/06/12 05:20:08;;;;;;;9.20;5.93;;;20.20;99.90;;;20.67;66.44;94475.78;5050058;28;20554;-56
2023/06/12 05:22:36;;;;;;;16.17;5.53;;;20.30;99.90;;;20.70;66.81;94478.03;5054786;28;20451;-62
2023/06/12 05:25:04;;;;;;;9.00;4.90;;;20.20;99.90;;;20.74;66.82;94467.72;5057808;28;20476;-61
2023/06/12 05:27:31;;;;;;;6.30;5.00;;;20.30;99.90;;;20.80;67.00;94474.06;5051765;28;20822;-55
2023/06/12 05:29:59;;;;;;;14.27;5.20;;;20.40;99.90;;;20.85;66.75;94477.75;5052837;28;20590;-62
2023/06/12 05:32:28;;;;;;;13.10;5.60;;;20.40;99.90;;;20.92;66.51;94477.72;5052513;28;20985;-55
2023/06/12 05:34:55;;;;;;;9.77;5.60;;;20.50;99.90;;;20.98;66.28;94474.19;5049754;28;20476;-55
2023/06/12 05:37:22;;;;;;;6.20;5.70;;;20.50;99.90;;;21.03;66.21;94474.34;5053753;28;20452;-54
2023/06/12 05:39:49;;;;;;;9.50;5.13;;;20.60;99.90;;;21.07;66.06;94478.25;5048167;28;20472;-55
2023/06/12 05:42:17;;;;;;;10.17;6.57;;;20.70;99.90;;;21.11;65.67;94478.63;5051237;28;20459;-53
2023/06/12 05:44:46;;;;;;;11.90;7.30;;;20.70;99.90;;;21.14;65.87;94479.00;5049221;28;21087;-61
2023/06/12 05:47:13;;;;;;;9.93;6.27;;;20.70;99.90;;;21.20;65.55;94476.53;5051169;28;20490;-55
2023/06/12 05:49:42;;;;;;;10.43;6.03;;;20.80;99.90;;;21.29;65.70;94478.72;5054524;28;20536;-60
2023/06/12 05:52:10;;;;;;;20.33;6.60;;;20.80;99.90;;;21.34;65.28;94475.41;5049302;28;20550;-61
2023/06/12 05:54:38;;;;;;;7.70;6.83;;;20.90;99.90;;;21.36;64.78;94486.69;5049474;28;21059;-62
2023/06/12 05:57:05;;;;;;;6.83;6.13;;;20.90;99.90;;;21.38;64.49;94489.16;5050163;28;20443;-56
2023/06/12 05:59:32;;;;;;;11.00;5.70;;;20.90;99.90;;;21.38;64.78;94484.63;5049421;28;20467;-56
2023/06/12 06:02:00;;;;;;;10.53;6.83;;;20.90;99.90;;;21.40;64.59;94482.56;5049295;28;20485;-61
2023/06/12 06:04:28;;;;;;;21.20;8.43;;;21.00;99.90;;;21.44;64.92;94477.56;5049758;28;20825;-54
2023/06/12 06:06:56;;;;;;;9.40;7.40;;;21.00;99.90;;;21.54;64.46;94485.97;5049225;28;20530;-53
2023/06/12 06:09:24;;;;;;;9.70;7.30;;;21.00;99.90;;;21.61;64.54;94489.44;5049151;28;20472;-53
2023/06/12 06:11:51;;;;;;;12.97;6.50;;;21.10;99.90;;;21.68;64.42;94484.03;5049142;28;20463;-54
2023/06/12 06:14:19;;;;;;;16.10;5.77;;;21.20;99.90;;;21.73;64.59;94480.69;5046238;28;21065;-54
2023/06/12 06:16:46;;;;;;;8.73;6.10;;;21.30;99.90;;;21.81;64.36;94475.91;5049132;28;20988;-61
2023/06/12 06:19:13;;;;;;;16.87;6.90;;;21.40;99.90;;;21.90;63.65;94487.13;5047301;28;20476;-62
2023/06/12 06:21:40;;;;;;;8.60;6.30;;;21.40;99.90;;;21.97;63.61;94482.53;5051737;28;20459;-52
2023/06/12 06:24:09;;;;;;;16.00;6.73;;;21.50;99.90;;;22.00;63.38;94483.97;5049561;28;20471;-53
2023/06/12 06:26:36;;;;;;;11.80;6.27;;;21.60;99.90;;;22.03;62.96;94483.53;5049051;28;20471;-61
2023/06/12 06:29:04;;;;;;;9.67;7.23;;;21.60;99.90;;;22.07;63.10;94487.38;5054704;28;20828;-61
2023/06/12 06:31:31;;;;;;;12.40;6.97;;;21.60;99.90;;;22.13;62.79;94481.16;5053006;28;21186;-62
2023/06/12 06:33:58;;;;;;;13.30;6.80;;;21.70;99.90;;;22.20;62.81;94486.47;5049026;28;20499;-56
2023/06/12 06:36:26;;;;;;;14.23;7.40;;;21.70;99.90;;;22.27;62.40;94481.03;5054401;28;20448;-54
2023/06/12 06:38:54;;;;;;;13.57;7.03;;;21.80;99.90;;;22.32;62.29;94483.88;5050028;28;20497;-61
2023/06/12 06:41:22;;;;;;;15.13;6.17;;;21.90;99.90;;;22.41;62.49;94487.91;5049809;28;20609;-56
2023/06/12 06:43:49;;;;;;;13.80;7.17;;;21.90;99.90;;;22.47;61.53;94489.69;5051224;28;20471;-61
2023/06/12 06:46:17;;;;;;;16.30;8.03;;;22.00;99.90;;;22.55;61.57;94492.06;5051531;28;20443;-61
2023/06/12 06:48:44;;;;;;;11.73;7.27;;;22.10;99.90;;;22.66;62.15;94484.31;5050672;28;20452;-57
2023/06/12 06:51:11;;;;;;;19.90;7.33;;;22.10;99.90;;;22.75;61.46;94477.63;5055517;28;20566;-54
2023/06/12 06:53:38;;;;;;;15.47;6.50;;;22.20;99.90;;;22.87;61.62;94481.19;5053018;28;21265;-56
2023/06/12 06:56:06;;;;;;;14.27;7.00;;;22.40;99.90;;;22.98;60.79;94481.47;5053511;28;20455;-54
2023/06/12 06:58:34;;;;;;;8.43;7.00;;;22.50;99.90;;;23.06;60.48;94483.81;5054324;28;20462;-62
2023/06/12 07:01:02;;;;;;;17.50;7.17;;;22.50;99.90;;;23.15;60.43;94479.00;5047579;28;20521;-62
2023/06/12 07:03:29;;;;;;;14.33;7.30;;;22.60;99.90;;;23.25;60.32;94480.09;5054048;28;20451;-55
2023/06/12 07:05:56;;;;;;;14.13;8.07;;;22.70;99.90;;;23.32;59.47;94476.50;5047365;28;20452;-61
2023/06/12 07:08:24;;;;;;;12.37;8.13;;;22.80;99.90;;;23.42;59.96;94471.38;5048863;28;20580;-61
2023/06/12 07:10:51;;;;;;;17.87;8.30;;;22.90;99.90;;;23.53;59.38;94478.66;5048568;28;20529;-61
2023/06/12 07:13:18;;;;;;;14.97;8.17;;;23.00;99.90;;;23.60;59.40;94473.97;5047001;28;20570;-61
2023/06/12 07:15:47;;;;;;;16.73;6.63;;;23.10;99.90;;;23.70;58.92;94473.44;5047383;28;21029;-62
2023/06/12 07:18:14;;;;;;;14.37;7.70;;;23.20;99.90;;;23.78;59.59;94473.06;5049038;28;20940;-54
2023/06/12 07:20:42;;;;;;;20.17;7.67;;;23.20;99.90;;;23.86;58.77;94471.94;5052307;28;20479;-62
2023/06/12 07:23:09;;;;;;;13.43;7.63;;;23.40;99.90;;;23.94;58.85;94478.84;5051428;28;20446;-55
2023/06/12 07:25:36;;;;;;;9.50;7.50;;;23.40;99.90;;;23.96;58.47;94468.66;5051232;28;20474;-63
2023/06/12 07:28:03;;;;;;;17.83;8.13;;;23.40;99.90;;;24.01;58.75;94471.47;5054708;28;20482;-61
2023/06/12 07:30:33;;;;;;;14.10;8.33;;;23.50;99.90;;;24.06;58.72;94479.66;5056529;28;20541;-61
2023/06/12 07:33:01;;;;;;;25.10;9.03;;;23.60;99.90;;;24.10;58.54;94480.81;5050500;28;20497;-56
2023/06/12 07:35:29;;;;;;;11.20;9.07;;;23.60;99.90;;;24.13;58.49;94476.84;5056626;28;20467;-57
2023/06/12 07:37:56;;;;;;;22.37;7.93;;;23.60;99.90;;;24.15;58.92;94478.25;5052216;28;20912;-61
2023/06/12 07:40:23;;;;;;;15.33;8.80;;;23.60;99.90;;;24.17;58.87;94473.47;5056935;28;20475;-54
2023/06/12 07:42:50;;;;;;;22.00;9.10;;;23.70;99.90;;;24.22;59.03;94474.63;5052271;28;20451;-53
2023/06/12 07:45:18;;;;;;;13.33;7.93;;;23.70;99.90;;;24.23;58.55;94477.09;5056995;28;20522;-61
2023/06/12 07:47:45;;;;;;;12.83;7.97;;;23.70;99.90;;;24.25;58.58;94474.97;5054017;28;20466;-65
2023/06/12 07:50:14;;;;;;;19.17;8.80;;;23.80;99.90;;;24.27;58.32;94478.25;5055922;28;20999;-62
2023/06/12 07:52:41;;;;;;;15.40;8.93;;;23.80;99.90;;;24.29;58.12;94480.69;5059664;28;20529;-56
2023/06/12 07:55:10;;;;;;;23.63;10.00;;;23.80;99.80;;;24.30;57.66;94488.53;5052437;28;21145;-56
2023/06/12 07:57:37;;;;;;;15.00;9.03;;;23.80;99.70;;;24.31;58.00;94476.72;5052506;28;20582;-61
2023/06/12 08:00:07;;;;;;;22.33;9.77;;;23.80;99.90;;;24.32;57.80;94473.00;5053643;28;20974;-56
2023/06/12 08:02:35;;;;;;;14.83;9.60;;;23.80;99.60;;;24.32;57.58;94478.38;5054803;28;20881;-57
2023/06/12 08:05:03;;;;;;;29.93;11.50;;;23.80;99.50;;;24.33;57.50;94477.31;5054148;28;20934;-57
2023/06/12 08:07:32;;;;;;;17.20;10.03;;;23.80;99.50;;;24.34;57.82;94478.13;5054682;28;20454;-61
2023/06/12 08:09:59;;;;;;;17.83;9.93;;;23.80;99.40;;;24.34;57.64;94470.88;5056555;28;20482;-54
2023/06/12 08:12:26;;;;;;;17.87;9.13;;;23.90;99.50;;;24.39;58.22;94475.56;5049721;28;20483;-60
2023/06/12 08:14:54;;;;;;;17.23;9.80;;;23.90;99.40;;;24.44;57.99;94474.84;5054082;28;21021;-61
2023/06/12 08:17:22;;;;;;;18.13;9.40;;;23.90;99.40;;;24.49;57.89;94469.56;5049592;28;20538;-57
2023/06/12 08:19:49;;;;;;;20.73;11.30;;;24.00;99.50;;;24.54;57.65;94477.75;5052574;28;20471;-56
2023/06/12 08:22:16;;;;;;;17.00;10.53;;;24.00;99.10;;;24.55;57.30;94474.00;5053145;28;20453;-62
2023/06/12 08:24:46;;;;;;;17.10;10.77;;;24.00;98.70;;;24.56;56.79;94464.88;5054215;28;20528;-60
2023/06/12 08:27:13;;;;;;;13.07;9.90;;;24.00;98.50;;;24.55;56.75;94476.69;5051722;28;20478;-54
2023/06/12 08:29:40;;;;;;;20.13;9.73;;;24.10;98.60;;;24.56;56.82;94480.22;5055514;28;20490;-54
2023/06/12 08:32:10;;;;;;;13.37;9.33;;;24.00;98.30;;;24.57;55.97;94471.94;5048820;28;20460;-56
2023/06/12 08:34:38;;;;;;;20.23;10.50;;;24.10;98.10;;;24.60;56.18;94478.69;5052579;28;20485;-56
2023/06/12 08:37:05;;;;;;;14.77;9.20;;;24.10;98.10;;;24.63;56.74;94473.69;5051389;28;20560;-60
2023/06/12 08:39:32;;;;;;;28.20;15.33;;;24.10;98.30;;;24.68;56.60;94473.78;5053090;28;20471;-60
2023/06/12 08:42:04;;;;;;;16.43;9.70;;;24.10;98.30;;;24.74;56.63;94465.81;5051339;28;21040;-54
2023/06/12 08:44:31;;;;;;;9.73;8.00;;;24.20;98.30;;;24.80;56.24;94475.59;5048966;28;20579;-56
2023/06/12 08:47:01;;;;;;;15.63;10.57;;;24.30;98.10;;;24.83;55.78;94475.97;5053462;28;20491;-62
2023/06/12 08:49:28;;;;;;;22.47;9.43;;;24.30;97.80;;;24.83;55.55;94480.50;5056125;28;20478;-62
2023/06/12 08:51:55;;;;;;;14.10;8.33;;;24.30;97.40;;;24.87;55.59;94476.31;5050556;28;20516;-61
2023/06/12 08:54:22;;;;;;;12.60;8.00;;;24.40;97.40;;;25.05;55.87;94478.81;5050295;28;20596;-57
2023/06/12 08:56:50;;;;;;;15.53;8.20;;;24.50;97.50;;;25.31;55.35;94475.81;5053133;28;20454;-61
2023/06/12 08:59:18;;;;;;;12.17;7.30;;;24.70;97.50;;;25.62;55.10;94473.66;5050822;28;20490;-62
2023/06/12 09:01:50;;;;;;;22.00;8.60;;;25.00;97.40;;;25.95;54.72;94470.97;5052151;28;20454;-61
2023/06/12 09:04:26;;;;;;;15.30;7.70;;;25.30;97.20;;;26.31;53.44;94470.72;5051148;28;20467;-67
2023/06/12 09:07:01;;;;;;;16.13;6.80;;;25.70;96.40;;;26.57;52.36;94476.44;5052167;28;20482;-61
2023/06/12 09:09:37;;;;;;;8.90;6.23;;;25.90;95.60;;;26.86;52.06;94462.81;5050393;28;20489;-55
2023/06/12 09:12:07;;;;;;;13.97;7.00;;;26.20;95.00;;;27.06;51.87;94462.22;5046955;28;20447;-55
2023/06/12 09:14:36;;;;;;;14.40;6.83;;;26.40;94.50;;;27.19;50.13;94457.25;5047883;28;20995;-54
2023/06/12 09:17:04;;;;;;;20.17;6.37;;;26.60;93.20;;;27.08;49.37;94457.38;5054824;28;20459;-63
2023/06/12 09:19:37;;;;;;;24.00;10.70;;;26.50;92.30;;;26.92;49.22;94451.81;5055270;28;20541;-63
2023/06/12 09:22:05;;;;;;;7.87;5.60;;;26.40;91.70;;;26.77;49.14;94449.75;5054247;28;20664;-55
2023/06/12 09:24:32;;;;;;;9.30;4.80;;;26.30;91.20;;;26.70;48.35;94454.53;5049372;28;20494;-61
2023/06/12 09:27:00;;;;;;;14.03;6.30;;;26.20;91.00;;;26.61;47.86;94450.59;5051230;28;20462;-56
2023/06/12 09:29:28;;;;;;;12.87;5.90;;;26.10;89.70;;;26.51;48.80;94448.59;5053676;28;20471;-55
2023/06/12 09:31:56;;;;;;;7.27;4.70;;;26.00;90.70;;;26.37;48.62;94445.44;5053597;28;20540;-55
2023/06/12 09:34:25;;;;;;;6.00;4.00;;;25.90;90.30;;;26.26;48.51;94432.91;5049512;28;20494;-56
2023/06/12 09:36:53;;;;;;;13.80;3.80;;;25.70;90.00;;;26.13;48.58;94444.81;5053292;28;21003;-62
2023/06/12 09:39:27;;;;;;;9.23;4.07;;;25.60;90.10;;;26.02;48.39;94443.84;5051008;28;20475;-63
2023/06/12 09:41:54;;;;;;;7.70;4.43;;;25.50;89.10;;;25.91;48.11;94439.38;5053738;28;20482;-55
2023/06/12 09:44:22;;;;;;;7.23;4.60;;;25.40;89.20;;;25.80;48.43;94429.50;5050765;28;20845;-55
2023/06/12 09:46:50;;;;;;;7.83;5.20;;;25.30;89.50;;;25.72;49.46;94428.84;5054808;28;20451;-55
2023/06/12 09:49:22;;;;;;;17.33;5.00;;;25.20;90.10;;;25.70;49.28;94430.97;5050078;28;21056;-56
2023/06/12 09:51:50;;;;;;;10.33;5.07;;;25.20;90.30;;;25.67;49.67;94438.69;5056553;28;20824;-61
2023/06/12 09:54:19;;;;;;;5.97;5.37;;;25.10;91.00;;;25.62;49.87;94427.84;5048918;28;20498;-61
2023/06/12 09:56:47;;;;;;;7.30;4.60;;;25.10;90.60;;;25.62;49.88;94427.84;5056038;28;20468;-54
2023/06/12 09:59:19;;;;;;;13.33;6.43;;;25.10;90.70;;;25.61;50.06;94427.06;5050226;28;20469;-62
2023/06/12 10:01:48;;;;;;;9.10;5.07;;;25.10;90.70;;;25.55;50.18;94430.72;5052891;28;20515;-61
2023/06/12 10:04:23;;;;;;;6.80;6.00;;;25.00;90.70;;;25.56;50.56;94424.25;5053055;28;20538;-61
2023/06/12 10:06:50;;;;;;;14.73;6.17;;;25.00;91.10;;;25.66;50.91;94426.31;5050125;28;20462;-55
2023/06/12 10:09:18;;;;;;;14.40;5.80;;;25.10;91.50;;;25.82;51.17;94427.38;5052538;28;20475;-61
2023/06/12 10:11:46;;;;;;;9.50;5.50;;;25.20;91.60;;;25.97;50.62;94430.28;5050807;28;20459;-56
2023/06/12 10:14:13;;;;;;;11.00;7.83;;;25.40;91.50;;;26.00;50.09;94424.44;5052633;28;20509;-62
2023/06/12 10:16:43;;;;;;;7.70;6.83;;;25.40;90.70;;;26.03;50.05;94426.63;5050558;28;20513;-62
2023/06/12 10:19:10;;;;;;;17.07;7.00;;;25.50;91.10;;;26.18;50.86;94426.06;5053793;28;20475;-57
2023/06/12 10:21:40;;;;;;;11.77;7.60;;;25.60;91.50;;;26.32;50.78;94425.66;5050615;28;20448;-61